sensor_id;sensor_type;location;lat;lon;timestamp;P1;durP1;ratioP1;P2;durP2;ratioP2
4597;SDS011;62772;48.646;8.906;2022-10-17T00:05:00;5.33;;;3.57;;
4597;SDS011;62772;48.646;8.906;2022-10-17T00:10:01;5.37;;;3.40;;
4597;SDS011;62772;48.646;8.906;2022-10-17T00:15:03;5.17;;;3.50;;
4597;SDS011;62772;48.646;8.906;2022-10-17T00:20:09;5.40;;;3.40;;
4597;SDS011;62772;48.646;8.906;2022-10-17T00:25:11;6.80;;;4.17;;
4597;SDS011;62772;48.646;8.906;2022-10-17T00:30:12;6.43;;;3.90;;
4597;SDS011;62772;48.646;8.906;2022-10-17T00:35:17;6.30;;;3.97;;
4597;SDS011;62772;48.646;8.906;2022-10-17T00:40:18;4.67;;;3.40;;
4597;SDS011;62772;48.646;8.906;2022-10-17T00:45:22;5.73;;;3.43;;
4597;SDS011;62772;48.646;8.906;2022-10-17T00:50:29;5.97;;;3.60;;
4597;SDS011;62772;48.646;8.906;2022-10-17T00:55:31;8.90;;;3.53;;
4597;SDS011;62772;48.646;8.906;2022-10-17T01:00:34;5.53;;;3.50;;
4597;SDS011;62772;48.646;8.906;2022-10-17T01:05:40;7.23;;;3.97;;
4597;SDS011;62772;48.646;8.906;2022-10-17T01:10:44;8.10;;;3.60;;
4597;SDS011;62772;48.646;8.906;2022-10-17T01:15:56;6.00;;;3.40;;
4597;SDS011;62772;48.646;8.906;2022-10-17T01:21:14;5.67;;;3.87;;
4597;SDS011;62772;48.646;8.906;2022-10-17T01:26:23;5.50;;;3.40;;
4597;SDS011;62772;48.646;8.906;2022-10-17T01:31:38;6.73;;;4.03;;
4597;SDS011;62772;48.646;8.906;2022-10-17T01:36:47;6.27;;;3.53;;
4597;SDS011;62772;48.646;8.906;2022-10-17T01:41:51;5.10;;;3.40;;
4597;SDS011;62772;48.646;8.906;2022-10-17T01:47:00;10.60;;;3.93;;
4597;SDS011;62772;48.646;8.906;2022-10-17T01:52:06;8.50;;;3.77;;
4597;SDS011;62772;48.646;8.906;2022-10-17T01:57:10;4.60;;;3.27;;
4597;SDS011;62772;48.646;8.906;2022-10-17T02:02:20;7.50;;;4.20;;
4597;SDS011;62772;48.646;8.906;2022-10-17T02:07:22;6.70;;;3.60;;
4597;SDS011;62772;48.646;8.906;2022-10-17T02:12:27;5.73;;;3.80;;
4597;SDS011;62772;48.646;8.906;2022-10-17T02:17:41;8.17;;;3.60;;
4597;SDS011;62772;48.646;8.906;2022-10-17T02:22:51;9.87;;;4.10;;
4597;SDS011;62772;48.646;8.906;2022-10-17T02:27:58;6.97;;;3.27;;
4597;SDS011;62772;48.646;8.906;2022-10-17T02:33:08;5.43;;;3.23;;
4597;SDS011;62772;48.646;8.906;2022-10-17T02:38:11;7.03;;;3.83;;
4597;SDS011;62772;48.646;8.906;2022-10-17T02:43:15;6.13;;;3.67;;
4597;SDS011;62772;48.646;8.906;2022-10-17T02:48:21;5.77;;;3.50;;
4597;SDS011;62772;48.646;8.906;2022-10-17T02:53:29;7.60;;;3.40;;
4597;SDS011;62772;48.646;8.906;2022-10-17T02:58:37;5.60;;;3.90;;
4597;SDS011;62772;48.646;8.906;2022-10-17T03:03:42;5.20;;;3.83;;
4597;SDS011;62772;48.646;8.906;2022-10-17T03:08:43;5.70;;;3.70;;
4597;SDS011;62772;48.646;8.906;2022-10-17T03:13:44;5.70;;;3.20;;
4597;SDS011;62772;48.646;8.906;2022-10-17T03:18:47;8.57;;;3.67;;
4597;SDS011;62772;48.646;8.906;2022-10-17T03:23:48;7.30;;;4.20;;
4597;SDS011;62772;48.646;8.906;2022-10-17T03:28:51;6.20;;;4.00;;
4597;SDS011;62772;48.646;8.906;2022-10-17T03:33:54;5.83;;;3.83;;
4597;SDS011;62772;48.646;8.906;2022-10-17T03:38:55;7.80;;;3.67;;
4597;SDS011;62772;48.646;8.906;2022-10-17T03:43:56;12.13;;;3.70;;
4597;SDS011;62772;48.646;8.906;2022-10-17T03:49:01;11.47;;;3.60;;
4597;SDS011;62772;48.646;8.906;2022-10-17T03:54:02;6.07;;;3.50;;
4597;SDS011;62772;48.646;8.906;2022-10-17T03:59:03;5.93;;;3.40;;
4597;SDS011;62772;48.646;8.906;2022-10-17T04:04:10;8.17;;;3.10;;
4597;SDS011;62772;48.646;8.906;2022-10-17T04:09:11;5.87;;;3.50;;
4597;SDS011;62772;48.646;8.906;2022-10-17T04:14:19;6.77;;;3.10;;
4597;SDS011;62772;48.646;8.906;2022-10-17T04:19:23;4.37;;;2.87;;
4597;SDS011;62772;48.646;8.906;2022-10-17T04:24:27;7.40;;;3.10;;
4597;SDS011;62772;48.646;8.906;2022-10-17T04:29:41;4.60;;;3.23;;
4597;SDS011;62772;48.646;8.906;2022-10-17T04:34:53;5.37;;;3.27;;
4597;SDS011;62772;48.646;8.906;2022-10-17T04:39:56;8.20;;;3.33;;
4597;SDS011;62772;48.646;8.906;2022-10-17T04:44:57;6.33;;;3.30;;
4597;SDS011;62772;48.646;8.906;2022-10-17T04:50:02;4.77;;;3.30;;
4597;SDS011;62772;48.646;8.906;2022-10-17T04:55:06;6.10;;;3.87;;
4597;SDS011;62772;48.646;8.906;2022-10-17T05:00:09;4.77;;;3.30;;
4597;SDS011;62772;48.646;8.906;2022-10-17T05:05:35;6.50;;;3.73;;
4597;SDS011;62772;48.646;8.906;2022-10-17T05:10:38;6.43;;;3.40;;
4597;SDS011;62772;48.646;8.906;2022-10-17T05:15:41;5.80;;;3.50;;
4597;SDS011;62772;48.646;8.906;2022-10-17T05:20:44;7.37;;;4.00;;
4597;SDS011;62772;48.646;8.906;2022-10-17T05:25:45;5.83;;;3.77;;
4597;SDS011;62772;48.646;8.906;2022-10-17T05:30:46;5.13;;;3.40;;
4597;SDS011;62772;48.646;8.906;2022-10-17T05:35:49;12.90;;;4.00;;
4597;SDS011;62772;48.646;8.906;2022-10-17T05:40:50;6.33;;;4.00;;
4597;SDS011;62772;48.646;8.906;2022-10-17T05:45:51;4.97;;;3.77;;
4597;SDS011;62772;48.646;8.906;2022-10-17T05:50:59;7.23;;;4.07;;
4597;SDS011;62772;48.646;8.906;2022-10-17T05:56:02;7.97;;;4.50;;
4597;SDS011;62772;48.646;8.906;2022-10-17T06:01:05;12.67;;;4.30;;
4597;SDS011;62772;48.646;8.906;2022-10-17T06:06:10;15.33;;;4.20;;
4597;SDS011;62772;48.646;8.906;2022-10-17T06:11:15;8.70;;;4.83;;
4597;SDS011;62772;48.646;8.906;2022-10-17T06:16:16;9.80;;;4.57;;
4597;SDS011;62772;48.646;8.906;2022-10-17T06:21:22;8.00;;;4.10;;
4597;SDS011;62772;48.646;8.906;2022-10-17T06:26:29;6.30;;;4.33;;
4597;SDS011;62772;48.646;8.906;2022-10-17T06:31:30;13.60;;;5.80;;
4597;SDS011;62772;48.646;8.906;2022-10-17T06:36:34;12.30;;;6.50;;
4597;SDS011;62772;48.646;8.906;2022-10-17T06:41:35;11.60;;;7.00;;
4597;SDS011;62772;48.646;8.906;2022-10-17T06:46:39;13.20;;;6.90;;
4597;SDS011;62772;48.646;8.906;2022-10-17T06:51:44;10.20;;;5.80;;
4597;SDS011;62772;48.646;8.906;2022-10-17T06:56:48;15.07;;;6.47;;
4597;SDS011;62772;48.646;8.906;2022-10-17T07:02:07;9.90;;;6.07;;
4597;SDS011;62772;48.646;8.906;2022-10-17T07:07:13;13.50;;;6.17;;
4597;SDS011;62772;48.646;8.906;2022-10-17T07:12:13;8.70;;;5.30;;
4597;SDS011;62772;48.646;8.906;2022-10-17T07:17:18;8.83;;;5.90;;
4597;SDS011;62772;48.646;8.906;2022-10-17T07:22:22;11.07;;;6.60;;
4597;SDS011;62772;48.646;8.906;2022-10-17T07:27:27;10.10;;;5.70;;
4597;SDS011;62772;48.646;8.906;2022-10-17T07:32:28;9.00;;;5.90;;
4597;SDS011;62772;48.646;8.906;2022-10-17T07:37:31;8.77;;;5.63;;
4597;SDS011;62772;48.646;8.906;2022-10-17T07:47:36;13.70;;;6.03;;
4597;SDS011;62772;48.646;8.906;2022-10-17T07:52:42;8.37;;;5.37;;
4597;SDS011;62772;48.646;8.906;2022-10-17T07:57:43;7.50;;;5.30;;
4597;SDS011;62772;48.646;8.906;2022-10-17T08:02:43;9.10;;;4.60;;
4597;SDS011;62772;48.646;8.906;2022-10-17T08:07:47;9.83;;;4.53;;
4597;SDS011;62772;48.646;8.906;2022-10-17T08:12:48;6.67;;;4.83;;
4597;SDS011;62772;48.646;8.906;2022-10-17T08:17:48;8.40;;;4.60;;
4597;SDS011;62772;48.646;8.906;2022-10-17T08:22:55;10.10;;;4.77;;
4597;SDS011;62772;48.646;8.906;2022-10-17T08:27:55;18.20;;;4.90;;
4597;SDS011;62772;48.646;8.906;2022-10-17T08:32:57;8.30;;;4.77;;
4597;SDS011;62772;48.646;8.906;2022-10-17T08:38:00;9.70;;;4.80;;
4597;SDS011;62772;48.646;8.906;2022-10-17T08:43:05;12.00;;;4.90;;
4597;SDS011;62772;48.646;8.906;2022-10-17T08:48:16;9.33;;;4.23;;
4597;SDS011;62772;48.646;8.906;2022-10-17T08:53:22;7.63;;;4.50;;
4597;SDS011;62772;48.646;8.906;2022-10-17T08:58:27;8.20;;;4.70;;
4597;SDS011;62772;48.646;8.906;2022-10-17T09:09:17;5.50;;;3.60;;
4597;SDS011;62772;48.646;8.906;2022-10-17T09:14:37;7.87;;;3.80;;
4597;SDS011;62772;48.646;8.906;2022-10-17T09:19:50;6.37;;;3.50;;
4597;SDS011;62772;48.646;8.906;2022-10-17T09:25:02;6.60;;;3.73;;
4597;SDS011;62772;48.646;8.906;2022-10-17T09:30:19;5.37;;;3.20;;
4597;SDS011;62772;48.646;8.906;2022-10-17T09:35:25;6.10;;;3.23;;
4597;SDS011;62772;48.646;8.906;2022-10-17T09:40:30;6.43;;;3.37;;
4597;SDS011;62772;48.646;8.906;2022-10-17T09:45:34;6.80;;;3.50;;
4597;SDS011;62772;48.646;8.906;2022-10-17T09:50:43;7.07;;;3.37;;
4597;SDS011;62772;48.646;8.906;2022-10-17T09:55:48;8.73;;;3.17;;
4597;SDS011;62772;48.646;8.906;2022-10-17T10:00:57;10.03;;;3.40;;
4597;SDS011;62772;48.646;8.906;2022-10-17T10:06:16;4.93;;;3.27;;
4597;SDS011;62772;48.646;8.906;2022-10-17T10:11:21;5.67;;;3.50;;
4597;SDS011;62772;48.646;8.906;2022-10-17T10:16:29;5.50;;;3.37;;
4597;SDS011;62772;48.646;8.906;2022-10-17T10:21:31;9.43;;;3.57;;
4597;SDS011;62772;48.646;8.906;2022-10-17T10:26:37;5.10;;;3.40;;
4597;SDS011;62772;48.646;8.906;2022-10-17T10:31:39;5.53;;;3.23;;
4597;SDS011;62772;48.646;8.906;2022-10-17T10:36:44;7.30;;;3.50;;
4597;SDS011;62772;48.646;8.906;2022-10-17T10:41:51;5.10;;;3.63;;
4597;SDS011;62772;48.646;8.906;2022-10-17T10:47:05;7.63;;;3.53;;
4597;SDS011;62772;48.646;8.906;2022-10-17T10:52:39;5.83;;;3.37;;
4597;SDS011;62772;48.646;8.906;2022-10-17T10:57:47;11.10;;;6.37;;
4597;SDS011;62772;48.646;8.906;2022-10-17T11:02:53;6.50;;;3.57;;
4597;SDS011;62772;48.646;8.906;2022-10-17T11:08:02;6.87;;;2.97;;
4597;SDS011;62772;48.646;8.906;2022-10-17T11:13:20;6.73;;;3.23;;
4597;SDS011;62772;48.646;8.906;2022-10-17T11:18:27;4.33;;;2.70;;
4597;SDS011;62772;48.646;8.906;2022-10-17T11:23:33;7.40;;;3.10;;
4597;SDS011;62772;48.646;8.906;2022-10-17T11:28:42;6.60;;;2.70;;
4597;SDS011;62772;48.646;8.906;2022-10-17T11:33:44;6.10;;;3.00;;
4597;SDS011;62772;48.646;8.906;2022-10-17T11:38:50;10.63;;;2.97;;
4597;SDS011;62772;48.646;8.906;2022-10-17T11:43:57;4.40;;;2.60;;
4597;SDS011;62772;48.646;8.906;2022-10-17T11:49:05;6.23;;;2.60;;
4597;SDS011;62772;48.646;8.906;2022-10-17T11:54:11;4.50;;;2.73;;
4597;SDS011;62772;48.646;8.906;2022-10-17T11:59:27;5.63;;;2.67;;
4597;SDS011;62772;48.646;8.906;2022-10-17T12:04:46;3.70;;;2.40;;
4597;SDS011;62772;48.646;8.906;2022-10-17T12:09:56;4.37;;;2.30;;
4597;SDS011;62772;48.646;8.906;2022-10-17T12:20:31;4.00;;;1.70;;
4597;SDS011;62772;48.646;8.906;2022-10-17T12:25:34;5.00;;;1.60;;
4597;SDS011;62772;48.646;8.906;2022-10-17T12:30:51;6.33;;;1.90;;
4597;SDS011;62772;48.646;8.906;2022-10-17T12:46:59;6.40;;;2.03;;
4597;SDS011;62772;48.646;8.906;2022-10-17T12:57:58;6.20;;;1.90;;
4597;SDS011;62772;48.646;8.906;2022-10-17T13:03:05;7.90;;;2.10;;
4597;SDS011;62772;48.646;8.906;2022-10-17T13:08:14;4.03;;;1.90;;
4597;SDS011;62772;48.646;8.906;2022-10-17T13:13:19;6.10;;;2.20;;
4597;SDS011;62772;48.646;8.906;2022-10-17T13:18:25;4.03;;;2.03;;
4597;SDS011;62772;48.646;8.906;2022-10-17T13:23:29;5.33;;;2.20;;
4597;SDS011;62772;48.646;8.906;2022-10-17T13:28:31;4.10;;;1.87;;
4597;SDS011;62772;48.646;8.906;2022-10-17T13:33:36;4.30;;;1.93;;
4597;SDS011;62772;48.646;8.906;2022-10-17T13:38:38;8.33;;;2.00;;
4597;SDS011;62772;48.646;8.906;2022-10-17T13:43:39;4.40;;;1.83;;
4597;SDS011;62772;48.646;8.906;2022-10-17T13:48:43;3.40;;;1.90;;
4597;SDS011;62772;48.646;8.906;2022-10-17T13:53:43;11.50;;;2.27;;
4597;SDS011;62772;48.646;8.906;2022-10-17T13:58:45;5.20;;;2.23;;
4597;SDS011;62772;48.646;8.906;2022-10-17T14:03:50;3.10;;;1.87;;
4597;SDS011;62772;48.646;8.906;2022-10-17T14:08:53;7.60;;;1.70;;
4597;SDS011;62772;48.646;8.906;2022-10-17T14:13:57;3.70;;;2.10;;
4597;SDS011;62772;48.646;8.906;2022-10-17T14:19:02;3.07;;;1.70;;
4597;SDS011;62772;48.646;8.906;2022-10-17T14:24:11;4.73;;;2.30;;
4597;SDS011;62772;48.646;8.906;2022-10-17T14:29:19;4.50;;;2.13;;
4597;SDS011;62772;48.646;8.906;2022-10-17T14:34:26;4.03;;;2.20;;
4597;SDS011;62772;48.646;8.906;2022-10-17T14:39:30;8.67;;;2.33;;
4597;SDS011;62772;48.646;8.906;2022-10-17T14:44:31;11.17;;;2.60;;
4597;SDS011;62772;48.646;8.906;2022-10-17T14:49:37;10.07;;;2.20;;
4597;SDS011;62772;48.646;8.906;2022-10-17T14:54:39;3.40;;;1.90;;
4597;SDS011;62772;48.646;8.906;2022-10-17T14:59:43;4.20;;;2.17;;
4597;SDS011;62772;48.646;8.906;2022-10-17T15:04:47;7.30;;;2.27;;
4597;SDS011;62772;48.646;8.906;2022-10-17T15:09:48;6.73;;;2.30;;
4597;SDS011;62772;48.646;8.906;2022-10-17T15:14:50;4.00;;;1.70;;
4597;SDS011;62772;48.646;8.906;2022-10-17T15:19:54;3.90;;;2.40;;
4597;SDS011;62772;48.646;8.906;2022-10-17T15:24:56;5.40;;;2.50;;
4597;SDS011;62772;48.646;8.906;2022-10-17T15:29:57;6.57;;;2.20;;
4597;SDS011;62772;48.646;8.906;2022-10-17T15:35:00;6.27;;;2.20;;
4597;SDS011;62772;48.646;8.906;2022-10-17T15:40:01;4.63;;;2.00;;
4597;SDS011;62772;48.646;8.906;2022-10-17T15:45:03;4.40;;;2.17;;
4597;SDS011;62772;48.646;8.906;2022-10-17T15:50:09;3.80;;;2.63;;
4597;SDS011;62772;48.646;8.906;2022-10-17T15:55:12;7.50;;;2.30;;
4597;SDS011;62772;48.646;8.906;2022-10-17T16:00:14;10.77;;;2.70;;
4597;SDS011;62772;48.646;8.906;2022-10-17T16:05:19;5.47;;;2.77;;
4597;SDS011;62772;48.646;8.906;2022-10-17T16:10:24;9.00;;;3.80;;
4597;SDS011;62772;48.646;8.906;2022-10-17T16:15:26;10.10;;;2.80;;
4597;SDS011;62772;48.646;8.906;2022-10-17T16:20:30;5.03;;;3.13;;
4597;SDS011;62772;48.646;8.906;2022-10-17T16:25:31;5.00;;;3.07;;
4597;SDS011;62772;48.646;8.906;2022-10-17T16:30:32;4.93;;;3.27;;
4597;SDS011;62772;48.646;8.906;2022-10-17T16:35:39;8.80;;;3.23;;
4597;SDS011;62772;48.646;8.906;2022-10-17T16:40:40;5.73;;;3.50;;
4597;SDS011;62772;48.646;8.906;2022-10-17T16:45:41;11.63;;;4.27;;
4597;SDS011;62772;48.646;8.906;2022-10-17T16:50:45;8.50;;;3.83;;
4597;SDS011;62772;48.646;8.906;2022-10-17T16:55:45;7.30;;;4.10;;
4597;SDS011;62772;48.646;8.906;2022-10-17T17:00:59;10.20;;;3.23;;
4597;SDS011;62772;48.646;8.906;2022-10-17T17:06:03;10.00;;;3.60;;
4597;SDS011;62772;48.646;8.906;2022-10-17T17:11:04;14.67;;;3.13;;
4597;SDS011;62772;48.646;8.906;2022-10-17T17:16:07;6.87;;;3.53;;
4597;SDS011;62772;48.646;8.906;2022-10-17T17:21:11;9.83;;;3.80;;
4597;SDS011;62772;48.646;8.906;2022-10-17T17:26:14;6.27;;;3.70;;
4597;SDS011;62772;48.646;8.906;2022-10-17T17:31:17;13.33;;;3.67;;
4597;SDS011;62772;48.646;8.906;2022-10-17T17:36:22;8.23;;;3.33;;
4597;SDS011;62772;48.646;8.906;2022-10-17T17:41:25;6.53;;;3.13;;
4597;SDS011;62772;48.646;8.906;2022-10-17T17:46:26;10.27;;;5.57;;
4597;SDS011;62772;48.646;8.906;2022-10-17T17:51:30;17.00;;;6.27;;
4597;SDS011;62772;48.646;8.906;2022-10-17T17:56:33;9.63;;;5.10;;
4597;SDS011;62772;48.646;8.906;2022-10-17T18:01:34;13.00;;;4.80;;
4597;SDS011;62772;48.646;8.906;2022-10-17T18:06:40;9.00;;;4.13;;
4597;SDS011;62772;48.646;8.906;2022-10-17T18:11:41;9.83;;;5.10;;
4597;SDS011;62772;48.646;8.906;2022-10-17T18:16:42;6.20;;;3.80;;
4597;SDS011;62772;48.646;8.906;2022-10-17T18:21:45;8.40;;;4.60;;
4597;SDS011;62772;48.646;8.906;2022-10-17T18:26:46;11.47;;;3.80;;
4597;SDS011;62772;48.646;8.906;2022-10-17T18:31:47;7.17;;;3.90;;
4597;SDS011;62772;48.646;8.906;2022-10-17T18:36:50;7.93;;;4.20;;
4597;SDS011;62772;48.646;8.906;2022-10-17T18:41:53;22.30;;;4.40;;
4597;SDS011;62772;48.646;8.906;2022-10-17T18:46:54;11.17;;;4.03;;
4597;SDS011;62772;48.646;8.906;2022-10-17T18:51:58;7.63;;;3.70;;
4597;SDS011;62772;48.646;8.906;2022-10-17T18:56:59;9.67;;;4.10;;
4597;SDS011;62772;48.646;8.906;2022-10-17T19:02:00;12.60;;;3.53;;
4597;SDS011;62772;48.646;8.906;2022-10-17T19:07:03;8.43;;;4.30;;
4597;SDS011;62772;48.646;8.906;2022-10-17T19:12:04;10.03;;;4.10;;
4597;SDS011;62772;48.646;8.906;2022-10-17T19:17:05;8.13;;;3.97;;
4597;SDS011;62772;48.646;8.906;2022-10-17T19:22:08;26.17;;;6.30;;
4597;SDS011;62772;48.646;8.906;2022-10-17T19:27:09;9.30;;;4.27;;
4597;SDS011;62772;48.646;8.906;2022-10-17T19:32:11;26.23;;;4.67;;
4597;SDS011;62772;48.646;8.906;2022-10-17T19:37:14;9.83;;;4.43;;
4597;SDS011;62772;48.646;8.906;2022-10-17T19:42:15;15.87;;;4.07;;
4597;SDS011;62772;48.646;8.906;2022-10-17T19:47:16;10.00;;;4.53;;
4597;SDS011;62772;48.646;8.906;2022-10-17T19:52:19;8.83;;;4.87;;
4597;SDS011;62772;48.646;8.906;2022-10-17T19:57:20;11.20;;;5.20;;
4597;SDS011;62772;48.646;8.906;2022-10-17T20:02:21;9.63;;;5.47;;
4597;SDS011;62772;48.646;8.906;2022-10-17T20:07:25;13.43;;;4.80;;
4597;SDS011;62772;48.646;8.906;2022-10-17T20:12:26;20.27;;;6.03;;
4597;SDS011;62772;48.646;8.906;2022-10-17T20:17:26;24.00;;;5.57;;
4597;SDS011;62772;48.646;8.906;2022-10-17T20:22:30;11.73;;;4.93;;
4597;SDS011;62772;48.646;8.906;2022-10-17T20:32:38;10.47;;;4.30;;
4597;SDS011;62772;48.646;8.906;2022-10-17T20:37:41;7.30;;;4.30;;
4597;SDS011;62772;48.646;8.906;2022-10-17T20:42:42;8.53;;;3.60;;
4597;SDS011;62772;48.646;8.906;2022-10-17T20:47:43;5.63;;;3.83;;
4597;SDS011;62772;48.646;8.906;2022-10-17T20:52:46;5.83;;;3.80;;
4597;SDS011;62772;48.646;8.906;2022-10-17T20:57:47;8.20;;;4.23;;
4597;SDS011;62772;48.646;8.906;2022-10-17T21:02:51;12.83;;;4.10;;
4597;SDS011;62772;48.646;8.906;2022-10-17T21:07:55;7.10;;;3.97;;
4597;SDS011;62772;48.646;8.906;2022-10-17T21:12:55;7.40;;;4.40;;
4597;SDS011;62772;48.646;8.906;2022-10-17T21:17:56;7.87;;;3.80;;
4597;SDS011;62772;48.646;8.906;2022-10-17T21:23:00;10.23;;;4.03;;
4597;SDS011;62772;48.646;8.906;2022-10-17T21:28:00;11.37;;;4.97;;
4597;SDS011;62772;48.646;8.906;2022-10-17T21:33:04;8.43;;;4.20;;
4597;SDS011;62772;48.646;8.906;2022-10-17T21:38:07;11.03;;;3.93;;
4597;SDS011;62772;48.646;8.906;2022-10-17T21:43:08;7.33;;;3.43;;
4597;SDS011;62772;48.646;8.906;2022-10-17T21:48:09;6.80;;;3.90;;
4597;SDS011;62772;48.646;8.906;2022-10-17T21:53:12;8.67;;;4.23;;
4597;SDS011;62772;48.646;8.906;2022-10-17T21:58:13;6.90;;;3.90;;
4597;SDS011;62772;48.646;8.906;2022-10-17T22:03:14;14.07;;;4.67;;
4597;SDS011;62772;48.646;8.906;2022-10-17T22:08:18;6.43;;;4.20;;
4597;SDS011;62772;48.646;8.906;2022-10-17T22:13:19;8.70;;;4.70;;
4597;SDS011;62772;48.646;8.906;2022-10-17T22:18:20;8.60;;;3.70;;
4597;SDS011;62772;48.646;8.906;2022-10-17T22:23:23;5.73;;;4.30;;
4597;SDS011;62772;48.646;8.906;2022-10-17T22:28:25;14.23;;;4.40;;
4597;SDS011;62772;48.646;8.906;2022-10-17T22:33:25;8.87;;;4.00;;
4597;SDS011;62772;48.646;8.906;2022-10-17T22:38:29;10.17;;;4.03;;
4597;SDS011;62772;48.646;8.906;2022-10-17T22:43:30;6.50;;;3.90;;
4597;SDS011;62772;48.646;8.906;2022-10-17T22:48:31;6.40;;;4.63;;
4597;SDS011;62772;48.646;8.906;2022-10-17T22:53:35;8.67;;;5.00;;
4597;SDS011;62772;48.646;8.906;2022-10-17T22:58:37;14.07;;;4.57;;
4597;SDS011;62772;48.646;8.906;2022-10-17T23:03:37;7.07;;;3.90;;
4597;SDS011;62772;48.646;8.906;2022-10-17T23:08:41;8.77;;;4.27;;
4597;SDS011;62772;48.646;8.906;2022-10-17T23:13:42;6.10;;;4.27;;
4597;SDS011;62772;48.646;8.906;2022-10-17T23:18:43;8.47;;;4.83;;
4597;SDS011;62772;48.646;8.906;2022-10-17T23:23:46;7.97;;;4.83;;
4597;SDS011;62772;48.646;8.906;2022-10-17T23:28:52;6.63;;;4.77;;
4597;SDS011;62772;48.646;8.906;2022-10-17T23:33:53;9.60;;;4.30;;
4597;SDS011;62772;48.646;8.906;2022-10-17T23:38:56;7.60;;;4.43;;
4597;SDS011;62772;48.646;8.906;2022-10-17T23:43:57;10.97;;;5.40;;
4597;SDS011;62772;48.646;8.906;2022-10-17T23:48:58;9.90;;;5.13;;
4597;SDS011;62772;48.646;8.906;2022-10-17T23:54:01;9.63;;;4.80;;
4597;SDS011;62772;48.646;8.906;2022-10-17T23:59:02;12.97;;;5.60;;
